createdAt,value
2019-06-27T00:00:38.907Z,4.10
2019-06-27T00:03:07.792Z,3.87
2019-06-27T00:05:36.626Z,4.20
2019-06-27T00:08:05.560Z,4.73
2019-06-27T00:10:34.632Z,3.93
2019-06-27T00:13:03.247Z,4.03
2019-06-27T00:15:33.132Z,3.60
2019-06-27T00:18:02.001Z,4.20
2019-06-27T00:20:30.861Z,3.70
2019-06-27T00:22:59.709Z,4.33
2019-06-27T00:25:28.592Z,3.53
2019-06-27T00:27:57.436Z,3.30
2019-06-27T00:30:27.243Z,3.60
2019-06-27T00:32:56.091Z,3.37
2019-06-27T00:35:24.948Z,3.33
2019-06-27T00:37:53.786Z,3.97
2019-06-27T00:40:22.662Z,3.67
2019-06-27T00:42:51.841Z,3.30
2019-06-27T00:45:21.746Z,4.00
2019-06-27T00:47:50.600Z,3.20
2019-06-27T00:50:19.478Z,3.53
2019-06-27T00:52:48.373Z,3.83
2019-06-27T00:55:17.223Z,3.73
2019-06-27T00:57:46.071Z,3.43
2019-06-27T01:00:14.984Z,3.50
2019-06-27T01:02:43.895Z,3.80
2019-06-27T01:05:12.815Z,3.83
2019-06-27T01:07:42.459Z,3.13
2019-06-27T01:10:11.341Z,3.47
2019-06-27T01:12:40.201Z,3.50
2019-06-27T01:15:09.178Z,3.53
2019-06-27T01:17:38.116Z,3.37
2019-06-27T01:20:06.985Z,2.90
2019-06-27T01:22:35.837Z,3.90
2019-06-27T01:25:05.432Z,3.20
2019-06-27T01:27:34.307Z,2.83
2019-06-27T01:30:03.179Z,3.93
2019-06-27T01:32:33.278Z,3.10
2019-06-27T01:35:04.379Z,4.20
2019-06-27T01:37:30.982Z,2.80
2019-06-27T01:39:59.817Z,2.63
2019-06-27T01:42:28.673Z,3.17
2019-06-27T01:45:01.083Z,3.60
2019-06-27T01:47:29.917Z,3.13
2019-06-27T01:49:59.425Z,3.60
2019-06-27T01:52:28.251Z,4.00
2019-06-27T01:54:57.230Z,3.60
2019-06-27T01:57:26.112Z,3.40
2019-06-27T01:59:54.947Z,3.70
2019-06-27T02:02:23.812Z,4.17
2019-06-27T02:04:52.651Z,4.20
2019-06-27T02:07:21.629Z,4.57
2019-06-27T02:09:51.045Z,3.77
2019-06-27T02:12:19.986Z,3.77
2019-06-27T02:14:48.784Z,4.23
2019-06-27T02:17:18.551Z,4.47
2019-06-27T02:19:47.428Z,4.20
2019-06-27T02:22:16.278Z,3.80
2019-06-27T02:24:46.211Z,4.33
2019-06-27T02:27:16.190Z,3.50
2019-06-27T02:29:45.106Z,3.93
2019-06-27T02:32:14.082Z,4.00
2019-06-27T02:34:44.000Z,4.67
2019-06-27T02:37:13.117Z,4.07
2019-06-27T02:39:41.962Z,3.93
2019-06-27T02:42:10.828Z,3.90
2019-06-27T02:44:39.676Z,4.00
2019-06-27T02:47:08.544Z,4.30
2019-06-27T02:49:37.394Z,3.60
2019-06-27T02:52:06.776Z,3.90
2019-06-27T02:54:35.894Z,3.93
2019-06-27T02:57:05.580Z,3.87
2019-06-27T02:59:35.756Z,4.10
2019-06-27T03:02:04.615Z,4.57
2019-06-27T03:04:33.442Z,4.53
2019-06-27T03:07:02.314Z,4.80
2019-06-27T03:09:31.168Z,4.30
2019-06-27T03:12:01.026Z,4.00
2019-06-27T03:14:29.597Z,4.87
2019-06-27T03:16:58.430Z,3.97
2019-06-27T03:19:27.264Z,4.17
2019-06-27T03:21:56.087Z,4.30
2019-06-27T03:24:26.231Z,5.13
2019-06-27T03:26:56.165Z,4.20
2019-06-27T03:29:24.991Z,3.53
2019-06-27T03:31:53.902Z,4.23
2019-06-27T03:34:24.686Z,4.07
2019-06-27T03:36:53.993Z,4.30
2019-06-27T03:39:24.727Z,4.73
2019-06-27T03:41:53.602Z,3.30
2019-06-27T03:44:23.307Z,4.43
2019-06-27T03:46:52.791Z,4.00
2019-06-27T03:49:21.652Z,4.07
2019-06-27T03:51:50.498Z,5.07
2019-06-27T03:54:19.373Z,4.20
2019-06-27T03:56:48.203Z,4.00
2019-06-27T03:59:17.989Z,4.23
2019-06-27T04:01:46.820Z,4.47
2019-06-27T04:04:15.639Z,5.23
2019-06-27T04:06:45.064Z,5.23
2019-06-27T04:09:13.962Z,4.20
2019-06-27T04:11:42.815Z,4.70
2019-06-27T04:14:11.691Z,5.03
2019-06-27T04:16:41.069Z,5.03
2019-06-27T04:19:11.220Z,4.03
2019-06-27T04:21:41.452Z,4.70
2019-06-27T04:24:10.364Z,5.60
2019-06-27T04:26:39.259Z,5.00
2019-06-27T04:29:08.106Z,5.10
2019-06-27T04:31:36.988Z,4.43
2019-06-27T04:34:05.840Z,4.67
2019-06-27T04:36:34.711Z,4.07
2019-06-27T04:39:03.720Z,3.83
2019-06-27T04:41:32.653Z,3.53
2019-06-27T04:44:01.517Z,3.80
2019-06-27T04:46:30.404Z,4.00
2019-06-27T04:48:59.285Z,4.00
2019-06-27T04:51:28.972Z,4.17
2019-06-27T04:53:57.814Z,4.10
2019-06-27T04:56:26.657Z,3.73
2019-06-27T04:58:56.812Z,3.77
2019-06-27T05:01:25.691Z,3.67
2019-06-27T05:03:54.532Z,3.53
2019-06-27T05:06:23.964Z,3.73
2019-06-27T05:08:53.456Z,3.77
2019-06-27T05:11:23.408Z,4.00
2019-06-27T05:13:52.372Z,3.50
2019-06-27T05:16:21.235Z,3.80
2019-06-27T05:18:50.868Z,3.33
2019-06-27T05:21:19.779Z,3.63
2019-06-27T05:23:48.616Z,3.17
2019-06-27T05:26:18.520Z,3.73
2019-06-27T05:28:47.367Z,2.83
2019-06-27T05:31:16.209Z,3.40
2019-06-27T05:33:45.059Z,2.30
2019-06-27T05:36:13.904Z,3.27
2019-06-27T05:38:43.318Z,3.00
2019-06-27T05:41:13.476Z,2.27
2019-06-27T05:43:42.328Z,2.67
2019-06-27T05:46:11.200Z,2.10
2019-06-27T05:48:40.061Z,2.73
2019-06-27T05:51:08.921Z,2.73
2019-06-27T05:53:38.323Z,2.60
2019-06-27T05:56:07.175Z,2.60
2019-06-27T05:58:36.013Z,2.67
2019-06-27T06:01:04.891Z,2.53
2019-06-27T06:03:33.777Z,2.57
2019-06-27T06:06:02.633Z,2.80
2019-06-27T06:08:31.471Z,2.70
2019-06-27T06:11:01.021Z,2.83
2019-06-27T06:13:29.955Z,3.30
2019-06-27T06:16:01.065Z,2.73
2019-06-27T06:18:28.243Z,2.53
2019-06-27T06:20:57.065Z,3.10
2019-06-27T06:23:27.359Z,2.43
2019-06-27T06:25:57.136Z,2.30
2019-06-27T06:28:25.994Z,3.63
2019-06-27T06:30:54.837Z,3.83
2019-06-27T06:33:23.702Z,3.40
2019-06-27T06:35:52.668Z,4.27
2019-06-27T06:38:22.096Z,3.33
2019-06-27T06:40:51.579Z,2.03
2019-06-27T06:43:20.552Z,3.03
2019-06-27T06:45:49.449Z,2.67
2019-06-27T06:48:18.289Z,3.20
2019-06-27T06:50:47.636Z,2.43
2019-06-27T06:53:17.741Z,2.10
2019-06-27T06:55:46.584Z,2.17
2019-06-27T06:58:15.466Z,2.73
2019-06-27T07:01:00.426Z,2.83
2019-06-27T07:03:14.095Z,3.03
2019-06-27T07:05:44.167Z,3.60
2019-06-27T07:08:13.116Z,4.07
2019-06-27T07:10:42.777Z,3.93
2019-06-27T07:13:12.112Z,3.43
2019-06-27T07:15:42.119Z,3.50
2019-06-27T07:18:11.133Z,2.77
2019-06-27T07:20:41.237Z,2.73
2019-06-27T07:23:10.285Z,3.23
2019-06-27T07:25:39.135Z,3.30
2019-06-27T07:28:08.025Z,3.47
2019-06-27T07:30:36.871Z,2.90
2019-06-27T07:33:05.752Z,3.03
2019-06-27T07:35:35.278Z,3.50
2019-06-27T07:38:04.119Z,3.50
2019-06-27T07:40:32.981Z,3.37
2019-06-27T07:43:03.049Z,2.83
2019-06-27T07:45:32.918Z,3.47
2019-06-27T07:48:01.762Z,3.30
2019-06-27T07:50:31.735Z,3.03
2019-06-27T07:53:00.569Z,2.40
2019-06-27T07:55:30.053Z,2.90
2019-06-27T07:57:58.873Z,2.67
2019-06-27T08:00:29.520Z,2.97
2019-06-27T08:02:58.339Z,3.33
2019-06-27T08:05:27.202Z,3.50
2019-06-27T08:07:56.040Z,2.77
2019-06-27T08:10:24.927Z,2.87
2019-06-27T08:12:54.336Z,2.73
2019-06-27T08:15:23.236Z,2.30
2019-06-27T08:17:52.080Z,2.67
2019-06-27T08:20:21.491Z,3.20
2019-06-27T08:22:50.359Z,3.33
2019-06-27T08:25:19.290Z,3.17
2019-06-27T08:27:48.142Z,3.13
2019-06-27T08:30:17.064Z,2.37
2019-06-27T08:32:45.901Z,3.17
2019-06-27T08:35:14.782Z,3.53
2019-06-27T08:37:44.335Z,2.80
2019-06-27T08:40:13.917Z,3.10
2019-06-27T08:42:42.807Z,2.93
2019-06-27T08:45:11.675Z,2.97
2019-06-27T08:47:41.864Z,2.60
2019-06-27T08:50:10.757Z,2.63
2019-06-27T08:52:39.666Z,2.83
2019-06-27T08:55:08.504Z,2.40
2019-06-27T08:57:37.471Z,3.13
2019-06-27T09:00:06.385Z,3.40
2019-06-27T09:02:35.192Z,3.07
2019-06-27T09:05:04.763Z,2.83
2019-06-27T09:07:33.646Z,2.47
2019-06-27T09:10:02.502Z,2.67
2019-06-27T09:12:31.510Z,2.90
2019-06-27T09:15:00.349Z,2.80
2019-06-27T09:17:29.186Z,2.67
2019-06-27T09:19:58.132Z,2.10
2019-06-27T09:22:27.003Z,3.10
2019-06-27T09:24:55.880Z,2.93
2019-06-27T09:27:24.765Z,2.63
2019-06-27T09:29:53.814Z,2.80
2019-06-27T09:32:26.015Z,2.57
2019-06-27T09:34:52.361Z,2.90
2019-06-27T09:37:21.204Z,2.80
2019-06-27T09:39:50.046Z,2.80
2019-06-27T09:42:19.731Z,2.63
2019-06-27T09:44:48.655Z,2.60
2019-06-27T09:47:18.845Z,2.30
2019-06-27T09:49:47.663Z,2.63
2019-06-27T09:52:16.523Z,2.43
2019-06-27T09:54:45.857Z,2.70
2019-06-27T09:57:15.149Z,2.80
2019-06-27T09:59:44.027Z,2.67
2019-06-27T10:02:13.472Z,2.27
2019-06-27T10:04:43.068Z,2.57
2019-06-27T10:07:11.928Z,2.97
2019-06-27T10:09:40.860Z,3.10
2019-06-27T10:12:09.697Z,3.37
2019-06-27T10:14:38.541Z,3.17
2019-06-27T10:17:07.398Z,2.60
2019-06-27T10:19:36.293Z,2.70
2019-06-27T10:22:05.191Z,2.67
2019-06-27T10:24:34.020Z,2.87
2019-06-27T10:27:02.856Z,2.90
2019-06-27T10:29:31.981Z,2.57
2019-06-27T10:32:00.833Z,2.70
2019-06-27T10:34:29.679Z,3.10
2019-06-27T10:36:58.669Z,2.77
2019-06-27T10:39:27.539Z,2.50
2019-06-27T10:41:56.395Z,2.60
2019-06-27T10:44:25.252Z,2.80
2019-06-27T10:46:54.767Z,2.80
2019-06-27T10:49:23.607Z,2.93
2019-06-27T10:51:52.467Z,2.80
2019-06-27T10:54:21.912Z,2.97
2019-06-27T10:56:51.464Z,2.90
2019-06-27T10:59:20.291Z,2.90
2019-06-27T11:01:49.162Z,2.87
2019-06-27T11:04:18.014Z,3.23
2019-06-27T11:06:46.861Z,2.93
2019-06-27T11:09:16.840Z,2.77
2019-06-27T11:11:46.708Z,3.10
2019-06-27T11:14:18.863Z,3.53
2019-06-27T11:16:44.448Z,2.90
2019-06-27T11:19:13.369Z,3.20
2019-06-27T11:21:42.210Z,2.83
2019-06-27T11:24:11.077Z,2.87
2019-06-27T11:26:39.916Z,2.90
2019-06-27T11:29:08.790Z,2.87
2019-06-27T11:31:38.973Z,2.50
2019-06-27T11:34:07.817Z,2.80
2019-06-27T11:36:36.699Z,2.90
2019-06-27T11:39:08.718Z,2.60
2019-06-27T11:41:37.576Z,2.40
2019-06-27T11:44:06.427Z,2.40
2019-06-27T11:46:35.271Z,2.83
2019-06-27T11:49:04.141Z,2.10
2019-06-27T11:51:32.993Z,2.67
2019-06-27T11:54:01.827Z,2.57
2019-06-27T11:56:32.186Z,2.90
2019-06-27T11:59:02.652Z,2.33
2019-06-27T12:01:31.889Z,3.20
2019-06-27T12:04:00.728Z,2.50
2019-06-27T12:06:31.784Z,2.80
2019-06-27T12:09:02.933Z,2.40
2019-06-27T12:11:31.778Z,3.40
2019-06-27T12:14:00.653Z,2.93
2019-06-27T12:16:29.600Z,2.63
2019-06-27T12:18:59.422Z,2.40
2019-06-27T12:21:29.351Z,3.07
2019-06-27T12:23:58.476Z,3.23
2019-06-27T12:26:27.399Z,2.53
2019-06-27T12:28:56.264Z,3.03
2019-06-27T12:31:25.199Z,2.70
2019-06-27T12:34:06.793Z,2.83
2019-06-27T12:36:26.690Z,3.27
2019-06-27T12:38:55.553Z,3.00
2019-06-27T12:41:24.391Z,2.87
2019-06-27T12:43:53.283Z,2.73
2019-06-27T12:46:22.724Z,2.40
2019-06-27T12:48:51.550Z,2.40
2019-06-27T12:51:20.433Z,2.73
2019-06-27T12:53:49.282Z,2.90
2019-06-27T12:56:20.141Z,3.00
2019-06-27T12:58:49.274Z,2.77
2019-06-27T13:01:18.244Z,2.20
2019-06-27T13:03:47.087Z,2.47
2019-06-27T13:06:16.502Z,2.37
2019-06-27T13:08:46.142Z,2.53
2019-06-27T13:11:15.024Z,2.13
2019-06-27T13:13:44.353Z,2.10
2019-06-27T13:16:13.250Z,2.70
2019-06-27T13:18:42.609Z,2.20
2019-06-27T13:21:11.479Z,2.60
2019-06-27T13:23:40.349Z,2.37
2019-06-27T13:26:09.212Z,3.30
2019-06-27T13:28:38.095Z,2.80
2019-06-27T13:31:06.968Z,3.13
2019-06-27T13:33:35.802Z,3.00
2019-06-27T13:36:04.667Z,3.00
2019-06-27T13:38:33.565Z,2.50
2019-06-27T13:41:02.696Z,2.87
2019-06-27T13:43:31.254Z,3.00
2019-06-27T13:46:00.143Z,2.70
2019-06-27T13:48:30.223Z,3.47
2019-06-27T13:50:59.726Z,2.73
2019-06-27T13:53:28.637Z,3.27
2019-06-27T13:55:57.759Z,3.10
2019-06-27T13:58:27.468Z,3.10
2019-06-27T14:00:56.831Z,3.17
2019-06-27T14:03:25.729Z,3.20
2019-06-27T14:05:54.587Z,2.13
2019-06-27T14:08:26.126Z,2.73
2019-06-27T14:10:52.344Z,2.00
2019-06-27T14:13:21.185Z,2.73
2019-06-27T14:15:50.098Z,2.33
2019-06-27T14:18:19.451Z,4.10
2019-06-27T14:20:49.025Z,2.70
2019-06-27T14:23:17.930Z,2.33
2019-06-27T14:25:46.765Z,2.30
2019-06-27T14:28:15.633Z,2.03
2019-06-27T14:30:44.472Z,1.60
2019-06-27T14:33:13.354Z,1.70
2019-06-27T14:35:42.239Z,2.70
2019-06-27T14:38:11.117Z,6.90
2019-06-27T14:40:40.004Z,13.57
2019-06-27T14:43:08.857Z,4.07
2019-06-27T14:45:37.796Z,3.40
2019-06-27T14:48:07.886Z,4.17
2019-06-27T14:50:36.950Z,2.00
2019-06-27T14:53:06.783Z,3.10
2019-06-27T14:55:36.342Z,2.10
2019-06-27T14:58:06.413Z,2.27
2019-06-27T15:00:35.964Z,1.90
2019-06-27T15:03:04.840Z,2.07
2019-06-27T15:05:33.861Z,1.50
2019-06-27T15:08:02.576Z,1.63
2019-06-27T15:10:31.616Z,1.87
2019-06-27T15:13:00.516Z,1.70
2019-06-27T15:15:30.261Z,1.70
2019-06-27T15:17:59.915Z,1.97
2019-06-27T15:20:28.777Z,1.57
2019-06-27T15:22:58.538Z,1.80
2019-06-27T15:25:28.513Z,1.33
2019-06-27T15:27:57.031Z,1.80
2019-06-27T15:30:26.259Z,2.00
2019-06-27T15:32:55.143Z,1.50
2019-06-27T15:35:26.698Z,1.80
2019-06-27T15:37:55.552Z,1.90
2019-06-27T15:40:24.449Z,2.47
2019-06-27T15:42:53.348Z,2.20
2019-06-27T15:45:22.204Z,2.30
2019-06-27T15:47:51.059Z,2.00
2019-06-27T15:50:19.941Z,3.30
2019-06-27T15:52:48.909Z,5.93
2019-06-27T15:55:17.773Z,2.60
2019-06-27T15:57:46.633Z,2.20
2019-06-27T16:00:16.167Z,2.50
2019-06-27T16:02:45.016Z,2.50
2019-06-27T16:05:14.052Z,2.40
2019-06-27T16:07:42.846Z,2.43
2019-06-27T16:10:11.793Z,2.33
2019-06-27T16:12:41.287Z,2.43
2019-06-27T16:15:10.233Z,2.43
2019-06-27T16:17:40.445Z,2.27
2019-06-27T16:20:10.518Z,2.80
2019-06-27T16:22:39.403Z,2.07
2019-06-27T16:25:08.331Z,3.30
2019-06-27T16:27:37.175Z,2.20
2019-06-27T16:30:07.295Z,2.13
2019-06-27T16:32:36.113Z,2.50
2019-06-27T16:35:05.031Z,2.50
2019-06-27T16:37:34.069Z,2.23
2019-06-27T16:40:02.937Z,2.23
2019-06-27T16:42:32.463Z,2.77
2019-06-27T16:45:01.367Z,2.27
2019-06-27T16:47:30.238Z,2.20
2019-06-27T16:50:00.480Z,2.37
2019-06-27T16:52:29.646Z,2.00
2019-06-27T16:54:58.565Z,1.80
2019-06-27T16:57:27.400Z,1.97
2019-06-27T16:59:56.236Z,1.97
2019-06-27T17:02:25.086Z,1.93
2019-06-27T17:04:53.911Z,1.83
2019-06-27T17:07:23.422Z,3.37
2019-06-27T17:09:52.920Z,2.53
2019-06-27T17:12:21.960Z,2.67
2019-06-27T17:14:52.031Z,3.17
2019-06-27T17:17:20.868Z,2.83
2019-06-27T17:19:49.753Z,2.53
2019-06-27T17:22:19.524Z,2.83
2019-06-27T17:24:48.512Z,3.03
2019-06-27T17:27:17.384Z,3.40
2019-06-27T17:29:46.205Z,3.30
2019-06-27T17:32:15.117Z,3.90
2019-06-27T17:34:44.105Z,3.77
2019-06-27T17:37:13.020Z,3.70
2019-06-27T17:39:41.926Z,4.43
2019-06-27T17:42:10.772Z,3.70
2019-06-27T17:44:40.319Z,4.20
2019-06-27T17:47:09.192Z,3.30
2019-06-27T17:49:38.044Z,3.33
2019-06-27T17:52:07.076Z,3.83
2019-06-27T17:54:36.570Z,3.60
2019-06-27T17:57:05.434Z,4.33
2019-06-27T17:59:34.439Z,4.43
2019-06-27T18:02:03.405Z,4.00
2019-06-27T18:04:32.297Z,3.93
2019-06-27T18:07:13.565Z,3.93
2019-06-27T18:09:30.199Z,4.00
2019-06-27T18:11:59.063Z,3.70
2019-06-27T18:14:29.101Z,4.70
2019-06-27T18:17:00.262Z,4.70
2019-06-27T18:19:29.844Z,4.33
2019-06-27T18:22:00.857Z,5.60
2019-06-27T18:24:31.194Z,4.03
2019-06-27T18:27:00.872Z,5.00
2019-06-27T18:29:30.245Z,3.53
2019-06-27T18:31:59.120Z,4.37
2019-06-27T18:34:27.972Z,4.63
2019-06-27T18:36:58.461Z,4.00
2019-06-27T18:39:28.448Z,4.10
2019-06-27T18:41:57.336Z,3.70
2019-06-27T18:44:26.188Z,3.00
2019-06-27T18:46:55.948Z,4.03
2019-06-27T18:49:25.219Z,3.77
2019-06-27T18:51:54.069Z,3.17
2019-06-27T18:54:23.212Z,3.50
2019-06-27T18:56:52.175Z,3.90
2019-06-27T18:59:21.020Z,4.43
2019-06-27T19:01:49.859Z,3.40
2019-06-27T19:04:19.660Z,3.77
2019-06-27T19:06:48.558Z,4.33
2019-06-27T19:09:18.425Z,3.60
2019-06-27T19:11:47.439Z,3.77
2019-06-27T19:14:16.320Z,3.40
2019-06-27T19:16:48.684Z,3.63
2019-06-27T19:19:20.159Z,3.83
2019-06-27T19:22:26.007Z,3.90
2019-06-27T19:25:03.380Z,3.27
2019-06-27T19:27:32.378Z,3.50
2019-06-27T19:30:01.330Z,4.03
2019-06-27T19:32:30.402Z,5.07
2019-06-27T19:34:59.257Z,3.83
2019-06-27T19:37:28.221Z,3.80
2019-06-27T19:39:57.063Z,4.30
2019-06-27T19:42:25.957Z,4.20
2019-06-27T19:44:54.826Z,4.03
2019-06-27T19:47:24.011Z,4.20
2019-06-27T19:49:52.882Z,4.30
2019-06-27T19:52:21.712Z,3.90
2019-06-27T19:54:50.586Z,3.80
2019-06-27T19:57:21.303Z,4.07
2019-06-27T19:59:50.183Z,4.43
2019-06-27T20:02:19.024Z,4.40
2019-06-27T20:04:48.393Z,4.30
2019-06-27T20:07:17.248Z,4.93
2019-06-27T20:09:46.147Z,4.60
2019-06-27T20:12:15.083Z,4.40
2019-06-27T20:14:43.943Z,4.33
2019-06-27T20:17:13.030Z,5.37
2019-06-27T20:19:41.869Z,4.40
2019-06-27T20:22:12.972Z,4.40
2019-06-27T20:24:41.821Z,4.83
2019-06-27T20:27:10.662Z,5.43
2019-06-27T20:29:40.132Z,4.67
2019-06-27T20:32:10.002Z,5.07
2019-06-27T20:34:39.554Z,5.40
2019-06-27T20:37:07.773Z,4.60
2019-06-27T20:39:36.687Z,5.53
2019-06-27T20:42:05.547Z,4.13
2019-06-27T20:44:34.539Z,5.00
2019-06-27T20:47:04.669Z,4.93
2019-06-27T20:49:33.592Z,5.77
2019-06-27T20:52:02.405Z,4.70
2019-06-27T20:54:31.253Z,5.57
2019-06-27T20:57:00.128Z,4.50
2019-06-27T20:59:28.996Z,4.10
2019-06-27T21:01:57.979Z,4.80
2019-06-27T21:04:27.384Z,4.73
2019-06-27T21:06:56.314Z,4.77
2019-06-27T21:09:26.567Z,4.63
2019-06-27T21:11:55.433Z,4.70
2019-06-27T21:14:25.621Z,4.20
2019-06-27T21:16:54.437Z,5.10
2019-06-27T21:19:24.032Z,4.95
2019-06-27T21:21:53.402Z,4.33
2019-06-27T21:24:22.322Z,4.67
2019-06-27T21:26:51.369Z,4.30
2019-06-27T21:29:20.217Z,4.43
2019-06-27T21:31:49.117Z,4.37
2019-06-27T21:34:18.929Z,5.10
2019-06-27T21:36:48.429Z,4.70
2019-06-27T21:39:17.288Z,4.83
2019-06-27T21:41:46.153Z,4.80
2019-06-27T21:44:15.038Z,4.53
2019-06-27T21:46:43.981Z,5.77
2019-06-27T21:49:12.887Z,5.67
2019-06-27T21:51:41.760Z,4.60
2019-06-27T21:54:10.614Z,5.70
2019-06-27T21:56:39.439Z,4.67
2019-06-27T21:59:08.298Z,5.27
2019-06-27T22:01:37.277Z,5.90
2019-06-27T22:04:06.109Z,5.70
2019-06-27T22:06:34.953Z,5.60
2019-06-27T22:09:04.667Z,5.43
2019-06-27T22:11:33.501Z,5.17
2019-06-27T22:14:02.347Z,5.40
2019-06-27T22:16:31.217Z,4.87
2019-06-27T22:19:01.788Z,5.37
2019-06-27T22:21:30.746Z,5.57
2019-06-27T22:23:59.792Z,5.60
2019-06-27T22:26:28.740Z,5.90
2019-06-27T22:28:57.580Z,5.37
2019-06-27T22:31:26.472Z,5.43
2019-06-27T22:33:55.875Z,6.33
2019-06-27T22:36:27.107Z,5.63
2019-06-27T22:39:01.285Z,5.90
2019-06-27T22:41:36.137Z,5.23
2019-06-27T22:44:10.352Z,5.70
2019-06-27T22:46:45.777Z,6.10
2019-06-27T22:49:14.856Z,6.10
2019-06-27T22:51:49.028Z,6.13
2019-06-27T22:54:18.335Z,6.23
2019-06-27T22:56:47.200Z,5.57
2019-06-27T22:59:16.681Z,6.53
2019-06-27T23:01:45.660Z,6.57
2019-06-27T23:04:14.512Z,5.80
2019-06-27T23:06:43.961Z,6.67
2019-06-27T23:09:13.864Z,6.13
2019-06-27T23:11:42.753Z,6.00
2019-06-27T23:14:12.332Z,5.53
2019-06-27T23:16:42.027Z,6.53
2019-06-27T23:19:11.834Z,6.43
2019-06-27T23:21:40.616Z,6.33
2019-06-27T23:24:09.472Z,6.80
2019-06-27T23:26:38.307Z,7.87
2019-06-27T23:29:07.543Z,6.80
2019-06-27T23:31:36.426Z,6.33
2019-06-27T23:34:05.269Z,6.20
2019-06-27T23:36:34.151Z,6.37
2019-06-27T23:39:03.010Z,7.27
2019-06-27T23:41:31.924Z,6.33
2019-06-27T23:44:00.773Z,6.97
2019-06-27T23:46:35.002Z,6.30
2019-06-27T23:49:03.881Z,6.33
2019-06-27T23:51:32.738Z,7.10
2019-06-27T23:54:01.612Z,7.27
2019-06-27T23:56:30.508Z,7.00
2019-06-27T23:59:01.633Z,6.90
